Time;durP1;ratioP1;P1;durP2;ratioP2;P2;SDS_P1;SDS_P2;PMS_P1;PMS_P2;Temp;Humidity;BMP_temperature;BMP_pressure;BME280_temperature;BME280_humidity;BME280_pressure;Samples;Min_cycle;Max_cycle;Signal;HPM_P1;HPM_P2
2022/05/03 00:01:25;;;;;;;8.50;3.30;;;;;;;5.21;69.38;99720.55;104793;1277;73939;-66
2022/05/03 00:04:50;;;;;;;9.10;3.70;;;;;;;5.22;69.78;99715.19;104717;1277;59746;-67
2022/05/03 00:07:53;;;;;;;10.80;4.40;;;;;;;5.23;69.35;99710.42;104714;1277;62091;-69
2022/05/03 00:11:05;;;;;;;10.30;4.00;;;;;;;5.22;69.46;99710.29;104513;1277;73885;-66
2022/05/03 00:14:33;;;;;;;9.40;3.90;;;;;;;5.21;69.57;99704.55;104427;1277;68665;-67
2022/05/03 00:17:22;;;;;;;8.70;3.40;;;;;;;5.20;70.08;99704.25;104571;1277;72328;-66
2022/05/03 00:20:11;;;;;;;11.60;4.00;;;;;;;5.19;70.16;99703.25;104661;1277;59905;-67
2022/05/03 00:23:00;;;;;;;11.10;4.30;;;;;;;5.19;70.17;99705.55;104629;1277;60485;-68
2022/05/03 00:25:54;;;;;;;11.80;4.60;;;;;;;5.18;70.06;99704.90;104644;1277;73608;-67
2022/05/03 00:28:42;;;;;;;10.30;4.40;;;;;;;5.18;70.45;99703.33;104545;1277;68577;-69
2022/05/03 00:31:31;;;;;;;15.10;4.60;;;;;;;5.18;70.43;99707.36;104817;1277;72360;-67
2022/05/03 00:34:21;;;;;;;10.80;4.30;;;;;;;5.19;70.51;99706.57;104507;1277;60594;-68
2022/05/03 00:37:09;;;;;;;12.10;4.70;;;;;;;5.20;70.38;99703.35;104591;1274;62161;-69
2022/05/03 00:39:57;;;;;;;9.80;4.30;;;;;;;5.21;70.37;99702.45;104928;1271;73833;-68
2022/05/03 00:43:04;;;;;;;9.70;4.30;;;;;;;5.20;70.55;99702.67;105160;1273;66785;-68
2022/05/03 00:46:11;;;;;;;11.00;3.80;;;;;;;5.18;70.82;99703.48;104904;1271;73527;-68
2022/05/03 00:49:36;;;;;;;9.40;3.50;;;;;;;5.17;71.00;99699.73;104904;1271;59744;-66
2022/05/03 00:52:30;;;;;;;10.80;4.00;;;;;;;5.15;71.03;99699.30;105141;1273;60577;-69
2022/05/03 00:55:54;;;;;;;11.20;4.70;;;;;;;5.12;71.06;99699.63;104944;1274;73902;-68
2022/05/03 00:59:23;;;;;;;9.70;3.60;;;;;;;5.08;71.07;99692.48;105015;1271;68761;-68
2022/05/03 01:02:13;;;;;;;8.40;3.90;;;;;;;5.04;71.36;99691.36;104978;1271;73842;-69
2022/05/03 01:05:10;;;;;;;9.40;4.40;;;;;;;5.00;71.59;99688.20;105920;1271;59639;-66
2022/05/03 01:08:07;;;;;;;10.40;4.20;;;;;;;4.99;72.05;99685.35;107548;1274;60683;-67
2022/05/03 01:11:25;;;;;;;13.10;4.40;;;;;;;4.98;72.05;99681.52;106963;1272;73744;-69
2022/05/03 01:14:32;;;;;;;10.20;4.00;;;;;;;4.95;72.53;99683.39;107686;1271;68109;-69
2022/05/03 01:18:11;;;;;;;10.00;4.00;;;;;;;4.95;72.51;99680.41;105538;1271;73523;-66
2022/05/03 01:21:14;;;;;;;9.60;5.00;;;;;;;4.94;72.15;99679.46;104609;1279;59942;-67
2022/05/03 01:24:17;;;;;;;12.70;4.40;;;;;;;4.92;72.80;99676.59;104275;1281;59638;-68
2022/05/03 01:27:39;;;;;;;10.60;4.40;;;;;;;4.93;72.84;99680.03;104626;1279;74775;-67
2022/05/03 01:30:32;;;;;;;10.70;4.30;;;;;;;4.94;73.12;99677.48;104433;1281;67746;-71
2022/05/03 01:33:49;;;;;;;10.10;4.20;;;;;;;4.96;73.09;99677.91;104446;1280;71832;-68
2022/05/03 01:37:11;;;;;;;8.90;3.20;;;;;;;4.97;73.61;99668.54;104406;1279;60500;-68
2022/05/03 01:40:07;;;;;;;9.30;4.00;;;;;;;4.99;73.43;99667.89;104407;1279;62104;-69
2022/05/03 01:43:47;;;;;;;11.10;4.00;;;;;;;4.99;73.78;99670.52;104345;1279;74837;-69
2022/05/03 01:46:37;;;;;;;8.90;4.10;;;;;;;4.99;73.71;99667.20;104448;1279;68709;-68
2022/05/03 01:53:23;;;;;;;10.20;4.20;;;;;;;4.96;73.75;99678.45;104362;1279;59753;-68
2022/05/03 01:57:10;;;;;;;11.50;4.20;;;;;;;4.94;73.86;99676.81;104521;1279;59613;-69
2022/05/03 02:00:07;;;;;;;8.70;4.40;;;;;;;4.91;73.77;99676.98;104949;1271;74731;-70
2022/05/03 02:03:13;;;;;;;9.90;3.90;;;;;;;4.88;74.27;99680.00;105156;1272;67071;-69
2022/05/03 02:06:15;;;;;;;9.60;4.40;;;;;;;4.84;74.25;99674.45;104996;1273;71599;-68
2022/05/03 02:09:05;;;;;;;9.90;4.20;;;;;;;4.82;74.60;99673.83;105161;1271;59974;-68
2022/05/03 02:12:13;;;;;;;9.70;4.40;;;;;;;4.81;74.20;99676.70;104883;1271;60236;-69
2022/05/03 02:15:08;;;;;;;11.10;4.50;;;;;;;4.81;75.05;99677.91;105050;1273;73841;-69
2022/05/03 02:18:08;;;;;;;8.50;3.50;;;;;;;4.81;74.75;99684.08;104895;1272;69175;-71
2022/05/03 02:21:17;;;;;;;8.60;3.90;;;;;;;4.82;75.16;99679.48;104814;1271;74387;-70
2022/05/03 02:24:25;;;;;;;7.50;3.40;;;;;;;4.83;75.32;99675.52;105250;1271;60769;-67
2022/05/03 02:27:18;;;;;;;10.50;4.20;;;;;;;4.87;75.13;99673.73;104926;1271;61532;-68
2022/05/03 02:30:08;;;;;;;11.20;4.20;;;;;;;4.91;74.98;99675.23;104847;1271;74609;-69
2022/05/03 02:32:56;;;;;;;8.90;4.10;;;;;;;4.96;75.35;99678.82;104777;1271;69677;-69
2022/05/03 02:35:51;;;;;;;9.60;4.10;;;;;;;5.01;74.92;99680.25;104882;1271;72356;-68
2022/05/03 02:39:05;;;;;;;11.90;4.40;;;;;;;5.08;74.97;99680.90;104727;1271;59757;-67
2022/05/03 02:41:58;;;;;;;9.70;4.10;;;;;;;5.16;74.86;99681.09;104817;1271;60385;-62
2022/05/03 02:44:48;;;;;;;8.50;3.70;;;;;;;5.22;74.77;99678.97;104983;1271;72454;-68
2022/05/03 02:48:18;;;;;;;9.40;4.40;;;;;;;5.28;74.30;99680.03;104818;1271;68385;-69
2022/05/03 02:51:09;;;;;;;9.20;4.00;;;;;;;5.30;74.47;99680.06;104107;1280;73523;-67
2022/05/03 02:54:06;;;;;;;8.90;4.10;;;;;;;5.30;74.36;99674.60;104568;1279;59760;-68
2022/05/03 02:57:39;;;;;;;9.20;4.10;;;;;;;5.31;74.65;99679.67;104301;1279;60242;-68
2022/05/03 03:04:07;;;;;;;10.30;4.10;;;;;;;5.23;74.84;99682.25;104340;1279;69324;-67
2022/05/03 03:06:55;;;;;;;10.30;4.70;;;;;;;5.19;75.26;99684.24;104415;1279;73957;-67
2022/05/03 03:09:48;;;;;;;8.90;4.20;;;;;;;5.17;75.33;99684.39;104109;1279;59671;-70
2022/05/03 03:13:23;;;;;;;12.20;4.70;;;;;;;5.16;75.87;99686.20;104313;1279;62010;-69
2022/05/03 03:16:14;;;;;;;10.80;5.30;;;;;;;5.17;75.88;99681.20;104411;1281;72474;-68
2022/05/03 03:19:26;;;;;;;9.10;4.60;;;;;;;5.20;75.66;99684.73;104239;1279;68438;-69
2022/05/03 03:22:15;;;;;;;9.60;4.80;;;;;;;5.22;75.79;99684.95;104391;1279;73703;-67
2022/05/03 03:25:05;;;;;;;12.80;4.40;;;;;;;5.24;75.68;99683.80;104349;1279;59668;-68
2022/05/03 03:27:55;;;;;;;9.00;4.10;;;;;;;5.25;75.40;99687.77;104481;1271;59585;-69
2022/05/03 03:30:45;;;;;;;11.00;3.90;;;;;;;5.25;75.53;99688.08;105062;1271;75128;-69
2022/05/03 03:33:36;;;;;;;10.10;4.00;;;;;;;5.27;75.67;99687.84;104704;1274;68579;-69
2022/05/03 03:36:28;;;;;;;10.70;5.20;;;;;;;5.27;75.55;99685.52;104631;1271;73247;-70
2022/05/03 03:39:15;;;;;;;10.60;4.70;;;;;;;5.29;75.55;99686.84;104927;1272;59625;-68
2022/05/03 03:42:05;;;;;;;10.50;4.70;;;;;;;5.32;75.32;99686.98;104748;1271;59575;-69
2022/05/03 03:44:58;;;;;;;9.70;4.50;;;;;;;5.38;75.35;99687.69;104654;1271;74695;-70
2022/05/03 03:47:48;;;;;;;12.20;4.60;;;;;;;5.45;75.34;99688.80;104890;1271;67567;-71
2022/05/03 03:50:37;;;;;;;11.80;5.10;;;;;;;5.54;75.17;99690.05;105048;1271;72430;-70
2022/05/03 03:53:27;;;;;;;10.30;4.50;;;;;;;5.63;74.71;99681.56;105103;1271;59669;-69
2022/05/03 03:56:17;;;;;;;10.10;4.50;;;;;;;5.70;74.37;99679.00;105008;1272;60884;-70
2022/05/03 03:59:05;;;;;;;10.20;4.60;;;;;;;5.78;74.42;99674.44;104818;1271;73876;-69
2022/05/03 04:01:53;;;;;;;11.00;3.90;;;;;;;5.85;74.03;99678.55;104787;1273;68706;-70
2022/05/03 04:04:44;;;;;;;9.10;4.00;;;;;;;5.93;73.52;99682.27;104991;1271;72063;-69
2022/05/03 04:07:32;;;;;;;9.40;3.50;;;;;;;6.03;73.01;99681.86;104914;1271;60342;-69
2022/05/03 04:10:21;;;;;;;9.50;4.00;;;;;;;6.10;73.18;99677.85;104819;1272;59610;-69
2022/05/03 04:13:13;;;;;;;10.30;4.10;;;;;;;6.23;72.76;99680.76;104856;1271;74584;-69
2022/05/03 04:16:04;;;;;;;9.60;3.30;;;;;;;6.31;72.39;99683.70;105507;1271;67640;-71
2022/05/03 04:18:52;;;;;;;9.80;4.00;;;;;;;6.40;72.18;99677.33;106813;1271;73603;-69
2022/05/03 04:21:40;;;;;;;9.20;4.40;;;;;;;6.51;72.28;99680.65;106220;1271;59697;-70
2022/05/03 04:24:28;;;;;;;9.20;3.90;;;;;;;6.63;71.51;99677.73;106615;1271;60681;-71
2022/05/03 04:27:16;;;;;;;10.70;4.20;;;;;;;6.75;71.20;99682.73;105237;1271;74626;-69
2022/05/03 04:30:05;;;;;;;8.50;3.70;;;;;;;6.87;70.73;99683.88;104938;1271;67007;-68
2022/05/03 04:32:52;;;;;;;12.30;4.20;;;;;;;6.98;70.52;99677.83;104899;1271;73157;-70
2022/05/03 04:35:40;;;;;;;9.90;3.80;;;;;;;7.08;69.98;99678.91;104808;1272;59679;-68
2022/05/03 04:38:28;;;;;;;8.30;3.60;;;;;;;7.20;69.87;99681.97;104924;1271;59664;-68
2022/05/03 04:41:17;;;;;;;8.80;4.00;;;;;;;7.32;69.54;99677.09;104768;1271;71870;-70
2022/05/03 04:44:05;;;;;;;8.50;3.40;;;;;;;7.44;69.12;99680.31;104921;1271;69522;-70
2022/05/03 04:46:54;;;;;;;9.90;4.00;;;;;;;7.55;68.73;99681.77;104823;1271;72372;-68
2022/05/03 04:49:43;;;;;;;9.20;3.60;;;;;;;7.66;68.70;99680.83;104995;1271;59656;-71
2022/05/03 04:52:31;;;;;;;9.70;3.90;;;;;;;7.77;68.17;99682.20;104835;1271;61003;-71
2022/05/03 04:55:19;;;;;;;9.60;4.90;;;;;;;7.91;67.74;99684.89;104917;1271;74569;-69
2022/05/03 04:58:07;;;;;;;8.80;3.80;;;;;;;8.08;67.49;99688.96;104158;1271;1005735;-70
2022/05/03 05:00:54;;;;;;;8.90;4.10;;;;;;;8.20;67.03;99690.02;105082;1271;74229;-67
2022/05/03 05:03:43;;;;;;;9.10;3.70;;;;;;;8.39;66.60;99690.55;104963;1271;60207;-69
2022/05/03 05:06:31;;;;;;;10.70;3.60;;;;;;;8.56;66.16;99686.70;104947;1271;59754;-69
2022/05/03 05:09:20;;;;;;;10.00;3.90;;;;;;;8.71;65.82;99691.23;104826;1271;73973;-69
2022/05/03 05:12:09;;;;;;;8.90;3.90;;;;;;;8.85;65.50;99693.13;105039;1271;66761;-70
2022/05/03 05:14:57;;;;;;;10.00;4.00;;;;;;;8.93;65.29;99691.34;104840;1271;73245;-72
2022/05/03 05:17:44;;;;;;;9.50;3.80;;;;;;;8.98;65.06;99697.84;105119;1271;59553;-70
2022/05/03 05:20:34;;;;;;;9.90;4.10;;;;;;;8.98;64.94;99692.48;104757;1273;59672;-70
2022/05/03 05:23:22;;;;;;;8.80;4.20;;;;;;;9.02;65.00;99693.27;104838;1271;72568;-70
2022/05/03 05:26:12;;;;;;;10.70;4.30;;;;;;;9.02;65.11;99683.86;105145;1271;67796;-71
2022/05/03 05:28:59;;;;;;;8.10;3.70;;;;;;;9.01;65.23;99690.48;104661;1271;74414;-70
2022/05/03 05:31:48;;;;;;;10.20;4.20;;;;;;;8.92;65.66;99693.89;104982;1271;60375;-72
2022/05/03 05:34:36;;;;;;;11.00;4.40;;;;;;;8.81;66.10;99694.16;105013;1271;60120;-70
2022/05/03 05:37:25;;;;;;;11.90;4.10;;;;;;;8.76;66.41;99692.61;105034;1271;74464;-69
2022/05/03 05:40:13;;;;;;;9.80;4.20;;;;;;;8.69;66.76;99690.82;104891;1272;68399;-70
2022/05/03 05:43:02;;;;;;;8.70;4.10;;;;;;;8.62;67.35;99690.46;104823;1271;74265;-72
2022/05/03 05:45:50;;;;;;;10.10;3.80;;;;;;;8.58;67.57;99697.52;104713;1271;59852;-69
2022/05/03 05:48:39;;;;;;;11.20;5.40;;;;;;;8.56;67.78;99698.70;104788;1271;59582;-69
2022/05/03 05:51:27;;;;;;;17.10;9.30;;;;;;;8.54;68.00;99699.92;105076;1271;73671;-68
2022/05/03 05:54:18;;;;;;;10.50;4.50;;;;;;;8.49;68.40;99707.71;104009;1275;1003088;-68
2022/05/03 05:57:06;;;;;;;14.80;7.60;;;;;;;8.43;68.57;99705.29;105232;1271;72623;-65
2022/05/03 05:59:54;;;;;;;14.50;6.20;;;;;;;8.39;68.78;99704.67;104932;1271;59787;-69
2022/05/03 06:02:41;;;;;;;21.10;8.60;;;;;;;8.40;69.00;99708.88;104814;1271;61143;-73
2022/05/03 06:05:31;;;;;;;10.80;5.50;;;;;;;8.42;69.14;99706.95;104844;1271;74242;-67
2022/05/03 06:08:18;;;;;;;10.90;5.00;;;;;;;8.43;69.00;99714.98;104787;1271;68835;-68
2022/05/03 06:11:06;;;;;;;9.70;5.00;;;;;;;8.44;68.98;99714.90;104792;1271;73319;-68
2022/05/03 06:13:56;;;;;;;11.10;4.90;;;;;;;8.48;69.24;99713.40;105062;1274;59843;-70
2022/05/03 06:16:54;;;;;;;10.60;5.30;;;;;;;8.54;68.98;99714.96;105100;1271;59718;-68
2022/05/03 06:19:42;;;;;;;13.00;5.20;;;;;;;8.56;68.83;99719.97;104936;1271;73492;-66
2022/05/03 06:22:30;;;;;;;11.30;5.00;;;;;;;8.62;68.86;99719.80;105040;1271;67648;-66
2022/05/03 06:25:18;;;;;;;10.30;5.10;;;;;;;8.71;68.78;99723.97;104988;1271;71834;-70
2022/05/03 06:28:06;;;;;;;10.10;5.00;;;;;;;8.79;68.65;99723.52;104723;1272;59665;-69
2022/05/03 06:30:54;;;;;;;11.90;4.60;;;;;;;8.93;68.45;99729.18;105062;1271;60314;-69
2022/05/03 06:33:42;;;;;;;11.30;5.40;;;;;;;9.09;67.90;99728.27;104839;1271;74203;-71
2022/05/03 06:36:35;;;;;;;12.70;4.80;;;;;;;9.28;67.48;99731.13;105080;1271;68128;-66
2022/05/03 06:39:23;;;;;;;10.90;5.20;;;;;;;9.45;67.33;99728.89;104800;1272;74291;-67
2022/05/03 06:42:11;;;;;;;10.80;4.50;;;;;;;9.59;66.83;99730.33;105160;1271;60019;-69
2022/05/03 06:44:59;;;;;;;9.60;5.00;;;;;;;9.71;66.28;99731.98;104736;1271;61093;-72
2022/05/03 06:47:48;;;;;;;10.50;5.50;;;;;;;9.83;66.10;99731.55;104825;1271;72439;-70
2022/05/03 06:50:38;;;;;;;10.80;4.80;;;;;;;9.97;65.65;99732.73;104840;1271;69262;-71
2022/05/03 06:53:26;;;;;;;11.40;4.80;;;;;;;10.10;65.51;99741.63;104887;1274;74632;-70
2022/05/03 06:56:16;;;;;;;9.90;4.70;;;;;;;10.36;65.30;99738.70;104852;1271;59775;-71
2022/05/03 06:59:08;;;;;;;8.80;4.30;;;;;;;10.94;64.15;99736.17;104870;1271;60489;-71
2022/05/03 07:01:55;;;;;;;12.20;5.10;;;;;;;11.42;62.39;99742.28;104760;1271;72680;-72
2022/05/03 07:04:44;;;;;;;9.30;4.90;;;;;;;11.71;61.62;99742.39;105012;1271;68365;-68
2022/05/03 07:07:33;;;;;;;11.30;5.20;;;;;;;11.97;60.94;99745.17;104973;1271;73864;-74
2022/05/03 07:10:20;;;;;;;11.10;5.10;;;;;;;12.16;60.80;99751.52;105162;1271;59746;-72
2022/05/03 07:13:14;;;;;;;12.40;4.70;;;;;;;12.41;60.24;99751.04;105216;1271;59640;-70
2022/05/03 07:16:02;;;;;;;9.60;4.60;;;;;;;12.58;59.77;99758.76;104995;1271;73501;-71
2022/05/03 07:25:06;;;;;;;10.80;5.80;;;;;;;12.50;60.37;99760.36;104811;1271;59768;-71
2022/05/03 07:27:54;;;;;;;9.80;5.50;;;;;;;12.47;60.53;99763.86;104844;1274;60521;-72
2022/05/03 07:30:43;;;;;;;14.40;6.10;;;;;;;12.34;61.09;99769.79;105108;1271;73555;-71
2022/05/03 07:33:31;;;;;;;11.40;5.20;;;;;;;12.17;61.82;99774.16;104922;1271;67612;-72
2022/05/03 07:36:22;;;;;;;11.50;5.90;;;;;;;11.97;62.82;99777.89;104885;1271;74410;-70
2022/05/03 07:39:10;;;;;;;10.40;5.30;;;;;;;11.86;63.30;99779.01;105036;1271;59800;-71
2022/05/03 07:41:58;;;;;;;10.70;5.10;;;;;;;11.83;63.94;99777.28;105065;1271;61062;-70
2022/05/03 07:44:46;;;;;;;11.20;5.20;;;;;;;13.13;61.66;99777.71;104867;1271;73871;-71
2022/05/03 07:47:35;;;;;;;10.50;4.90;;;;;;;13.93;59.14;99775.93;104765;1271;68837;-70
2022/05/03 07:50:23;;;;;;;9.50;4.70;;;;;;;14.09;57.91;99781.04;104956;1271;74507;-70
2022/05/03 07:53:11;;;;;;;9.10;3.90;;;;;;;14.05;57.59;99783.75;104818;1271;59733;-69
2022/05/03 07:55:59;;;;;;;9.20;4.70;;;;;;;13.84;57.61;99783.97;104743;1271;60237;-70
2022/05/03 07:58:46;;;;;;;9.10;4.00;;;;;;;13.80;58.00;99787.04;105057;1271;73912;-70
2022/05/03 08:01:37;;;;;;;8.40;3.80;;;;;;;13.85;57.67;99797.63;104818;1271;69353;-69
2022/05/03 08:04:27;;;;;;;11.90;4.40;;;;;;;13.77;57.89;99806.02;104771;1271;73345;-70
2022/05/03 08:07:15;;;;;;;8.00;3.00;;;;;;;13.50;59.88;99808.02;104779;1271;59777;-69
2022/05/03 08:10:04;;;;;;;6.70;3.10;;;;;;;13.18;61.21;99817.71;104796;1271;61081;-66
2022/05/03 08:12:52;;;;;;;6.90;2.90;;;;;;;12.97;62.29;99821.61;104690;1271;73749;-70
2022/05/03 08:15:41;;;;;;;8.30;3.70;;;;;;;12.89;62.92;99823.71;104719;1271;68622;-70
2022/05/03 08:18:28;;;;;;;8.50;3.70;;;;;;;12.97;62.90;99830.30;104698;1271;73561;-68
2022/05/03 08:21:17;;;;;;;9.30;4.00;;;;;;;13.04;62.83;99830.74;104984;1271;59662;-71
2022/05/03 08:24:06;;;;;;;9.10;4.40;;;;;;;12.91;62.74;99832.80;104847;1271;61665;-71
2022/05/03 08:26:54;;;;;;;9.50;4.90;;;;;;;12.70;63.68;99844.51;104854;1272;73787;-74
2022/05/03 08:29:44;;;;;;;11.40;5.70;;;;;;;12.50;65.80;99848.06;104838;1271;68998;-71
2022/05/03 08:32:32;;;;;;;12.70;6.60;;;;;;;12.36;66.87;99853.73;105088;1271;73207;-71
2022/05/03 08:35:24;;;;;;;13.80;6.00;;;;;;;12.32;68.24;99854.08;104794;1270;59659;-70
2022/05/03 08:42:01;;;;;;;10.80;4.70;;;;;;;12.02;69.59;99862.11;105074;1271;74732;-69
2022/05/03 08:44:32;;;;;;;10.60;5.40;;;;;;;11.85;69.88;99864.70;105400;1271;68266;-71
2022/05/03 08:47:20;;;;;;;10.20;5.50;;;;;;;11.77;71.30;99870.40;104907;1271;73467;-70
2022/05/03 08:50:11;;;;;;;9.70;5.30;;;;;;;11.62;72.75;99864.20;104940;1271;60834;-71
2022/05/03 08:53:03;;;;;;;10.80;4.90;;;;;;;11.55;73.69;99878.66;104702;1271;62046;-70
2022/05/03 08:55:51;;;;;;;10.40;4.70;;;;;;;11.42;74.52;99882.45;105135;1271;73868;-69
2022/05/03 08:58:42;;;;;;;9.20;4.70;;;;;;;11.30;75.30;99880.41;104877;1271;68807;-71
2022/05/03 09:01:30;;;;;;;10.60;4.20;;;;;;;11.22;76.36;99878.20;104897;1271;74691;-69
2022/05/03 09:04:18;;;;;;;8.80;4.30;;;;;;;11.28;76.56;99881.10;104886;1271;59534;-71
2022/05/03 09:07:25;;;;;;;9.30;4.60;;;;;;;11.42;76.07;99887.73;104952;1271;396842;-71
2022/05/03 09:10:31;;;;;;;8.40;4.00;;;;;;;11.51;75.60;99885.95;105100;1271;74548;-73
2022/05/03 09:13:40;;;;;;;9.80;4.50;;;;;;;11.76;75.45;99878.29;104879;1271;68471;-69
2022/05/03 09:16:29;;;;;;;9.80;4.50;;;;;;;12.15;74.06;99879.41;104888;1271;72068;-71
2022/05/03 09:19:25;;;;;;;9.50;5.10;;;;;;;12.55;73.12;99876.59;105158;1271;59793;-73
2022/05/03 09:25:27;;;;;;;10.20;5.30;;;;;;;13.69;70.44;99878.25;104910;1271;74548;-73
2022/05/03 09:28:18;;;;;;;11.20;5.50;;;;;;;14.58;66.42;99876.73;105070;1271;67735;-72
2022/05/03 09:31:06;;;;;;;9.80;5.30;;;;;;;14.82;65.03;99869.47;104893;1271;73021;-72
2022/05/03 09:33:55;;;;;;;12.00;5.70;;;;;;;14.88;63.60;99867.02;104943;1271;59689;-68
2022/05/03 09:36:47;;;;;;;9.90;5.00;;;;;;;14.79;63.08;99868.13;105067;1271;61514;-70
2022/05/03 09:39:52;;;;;;;9.80;5.30;;;;;;;14.69;63.06;99869.48;105076;1271;73830;-71
2022/05/03 09:42:51;;;;;;;10.70;5.40;;;;;;;14.56;63.30;99870.90;104971;1271;67616;-72
2022/05/03 09:45:39;;;;;;;11.80;5.80;;;;;;;14.30;64.04;99874.10;104819;1271;73648;-71
2022/05/03 09:48:55;;;;;;;10.90;5.70;;;;;;;14.14;64.21;99873.80;104806;1271;59760;-71
2022/05/03 09:51:43;;;;;;;11.10;5.70;;;;;;;13.98;65.60;99875.92;105154;1271;60258;-71
2022/05/03 09:54:49;;;;;;;9.50;4.90;;;;;;;13.90;66.47;99878.05;105149;1271;74290;-72
2022/05/03 09:57:41;;;;;;;10.00;4.90;;;;;;;13.77;66.13;99887.19;104872;1272;70076;-73
2022/05/03 10:00:31;;;;;;;10.00;5.20;;;;;;;13.50;66.95;99892.89;104844;1271;73619;-72
2022/05/03 10:03:20;;;;;;;9.60;4.90;;;;;;;13.25;67.89;99895.08;104911;1270;59778;-72
2022/05/03 10:06:11;;;;;;;12.00;5.40;;;;;;;13.03;68.88;99895.45;104952;1271;60335;-73
2022/05/03 10:08:59;;;;;;;9.30;5.20;;;;;;;12.74;70.40;99899.02;104778;1272;73819;-71
2022/05/03 10:11:49;;;;;;;10.10;5.40;;;;;;;12.48;71.57;99899.10;105110;1271;66872;-74
2022/05/03 10:14:42;;;;;;;10.90;4.90;;;;;;;12.36;72.37;99900.94;104850;1271;73469;-73
2022/05/03 10:20:50;;;;;;;10.70;5.80;;;;;;;12.28;73.09;99901.25;104908;1276;60236;-71
2022/05/03 10:23:39;;;;;;;10.90;6.10;;;;;;;12.48;73.66;99895.59;104842;1276;73905;-72
2022/05/03 10:26:53;;;;;;;10.80;6.50;;;;;;;12.83;73.17;99899.73;104615;1276;67245;-71
2022/05/03 10:30:14;;;;;;;10.80;5.80;;;;;;;13.12;71.52;99891.71;104708;1277;73894;-72
2022/05/03 10:33:20;;;;;;;11.90;6.70;;;;;;;13.21;69.95;99886.04;104778;1276;59881;-70
2022/05/03 10:36:30;;;;;;;11.80;7.20;;;;;;;13.24;70.19;99889.35;104472;1276;61045;-71
2022/05/03 10:39:22;;;;;;;12.30;6.80;;;;;;;13.22;70.22;99886.82;105025;1276;72214;-73
2022/05/03 10:42:15;;;;;;;11.90;6.60;;;;;;;13.20;69.54;99890.36;104526;1276;68651;-73
2022/05/03 10:45:06;;;;;;;13.40;6.60;;;;;;;13.13;69.77;99888.39;104776;1276;73700;-71
2022/05/03 10:47:54;;;;;;;12.80;7.10;;;;;;;13.17;69.91;99887.14;104944;1274;59803;-69
2022/05/03 10:50:43;;;;;;;11.20;5.70;;;;;;;13.21;69.50;99891.04;104915;1271;59576;-69
2022/05/03 10:53:41;;;;;;;11.00;6.20;;;;;;;13.24;69.14;99892.48;104960;1271;73944;-71
2022/05/03 10:56:29;;;;;;;12.70;5.60;;;;;;;13.24;69.46;99893.10;104903;1271;68136;-70
2022/05/03 10:59:18;;;;;;;10.80;5.50;;;;;;;13.18;69.92;99894.81;104960;1271;73201;-67
2022/05/03 11:02:07;;;;;;;10.40;5.90;;;;;;;13.28;70.17;99897.98;105048;1271;59924;-69
2022/05/03 11:05:14;;;;;;;9.30;4.70;;;;;;;13.45;68.74;99900.64;104971;1271;59585;-71
2022/05/03 11:08:21;;;;;;;10.80;5.20;;;;;;;13.62;67.79;99905.48;105028;1271;72697;-67
2022/05/03 11:11:47;;;;;;;9.40;5.40;;;;;;;13.75;66.99;99908.66;105150;1271;66310;-69
2022/05/03 11:14:37;;;;;;;9.30;5.20;;;;;;;13.89;66.99;99907.62;104949;1271;73791;-70
2022/05/03 11:17:25;;;;;;;9.10;4.90;;;;;;;14.04;66.26;99903.52;105076;1271;59681;-66
2022/05/03 11:20:21;;;;;;;8.80;4.40;;;;;;;14.09;64.44;99902.84;104912;1271;59599;-69
2022/05/03 11:23:09;;;;;;;10.50;4.70;;;;;;;14.06;64.16;99905.69;104966;1271;74163;-70
2022/05/03 11:25:57;;;;;;;9.50;4.90;;;;;;;13.97;64.31;99910.60;105030;1271;67394;-68
2022/05/03 11:28:49;;;;;;;9.10;4.80;;;;;;;13.91;64.42;99901.48;104876;1271;72044;-64
2022/05/03 11:31:37;;;;;;;9.40;5.50;;;;;;;14.07;64.11;99904.52;105181;1271;59784;-69
2022/05/03 11:34:26;;;;;;;11.20;5.60;;;;;;;14.32;63.97;99906.01;104953;1271;59541;-69
2022/05/03 11:37:13;;;;;;;9.20;4.90;;;;;;;14.68;62.00;99907.61;104977;1271;74103;-70
2022/05/03 11:40:09;;;;;;;8.90;4.80;;;;;;;15.23;59.71;99909.52;104887;1271;65757;-70
2022/05/03 11:42:58;;;;;;;9.30;4.50;;;;;;;15.98;58.19;99908.08;104888;1271;72392;-69
2022/05/03 11:45:47;;;;;;;9.20;4.30;;;;;;;16.48;55.39;99898.98;104913;1271;59759;-70
2022/05/03 11:48:35;;;;;;;8.70;4.20;;;;;;;16.72;54.45;99895.50;104877;1271;60515;-69
2022/05/03 11:57:48;;;;;;;8.00;3.90;;;;;;;16.60;53.48;99902.39;105037;1271;74181;-70
2022/05/03 12:00:48;;;;;;;8.30;4.60;;;;;;;16.43;53.78;99903.44;104775;1271;59665;-70
2022/05/03 12:03:55;;;;;;;10.00;4.20;;;;;;;16.15;52.92;99908.42;105103;1271;60881;-70
2022/05/03 12:06:44;;;;;;;9.90;4.70;;;;;;;15.77;53.77;99917.38;104793;1271;72984;-69
2022/05/03 12:09:35;;;;;;;11.10;4.90;;;;;;;15.48;54.84;99916.11;104931;1271;68295;-70
2022/05/03 12:12:44;;;;;;;8.90;4.60;;;;;;;15.23;56.47;99912.36;104969;1271;73423;-68
2022/05/03 12:15:35;;;;;;;8.60;4.10;;;;;;;15.10;56.73;99919.77;104948;1271;59735;-68
2022/05/03 12:18:37;;;;;;;9.40;4.00;;;;;;;14.92;56.76;99912.80;104943;1271;62497;-70
2022/05/03 12:21:28;;;;;;;8.80;3.90;;;;;;;15.00;56.93;99911.40;104879;1271;72617;-69
2022/05/03 12:24:16;;;;;;;8.70;4.20;;;;;;;15.14;56.44;99910.41;104992;1271;67318;-69
2022/05/03 12:27:13;;;;;;;9.70;3.80;;;;;;;15.12;55.56;99910.57;104869;1271;73481;-69
2022/05/03 12:30:11;;;;;;;9.20;4.10;;;;;;;15.11;55.71;99916.02;104872;1271;59767;-68
2022/05/03 12:33:08;;;;;;;8.80;3.90;;;;;;;14.96;54.75;99914.34;105030;1271;62023;-68
2022/05/03 12:35:56;;;;;;;10.00;4.30;;;;;;;14.67;55.71;99916.11;104825;1271;73597;-73
2022/05/03 12:38:49;;;;;;;9.30;4.40;;;;;;;14.54;56.98;99917.47;105138;1271;68649;-69
2022/05/03 12:41:38;;;;;;;9.70;4.70;;;;;;;14.42;57.77;99922.04;104969;1271;72381;-72
2022/05/03 12:44:27;;;;;;;10.40;4.80;;;;;;;14.26;58.07;99922.52;104877;1271;59771;-72
2022/05/03 12:47:15;;;;;;;10.60;4.70;;;;;;;13.99;58.71;99924.50;104867;1271;60544;-70
2022/05/03 12:50:03;;;;;;;8.00;4.10;;;;;;;13.80;59.22;99923.63;104886;1271;72638;-68
2022/05/03 12:52:51;;;;;;;9.70;4.30;;;;;;;13.63;59.46;99925.21;104901;1271;68336;-69
2022/05/03 12:55:39;;;;;;;7.50;3.60;;;;;;;13.48;59.93;99920.86;104864;1271;74379;-71
2022/05/03 12:58:27;;;;;;;8.00;3.60;;;;;;;13.35;59.57;99923.30;105136;1271;59715;-72
2022/05/03 13:01:15;;;;;;;7.60;2.90;;;;;;;13.23;59.67;99925.16;104840;1271;59691;-69
2022/05/03 13:04:03;;;;;;;7.70;3.40;;;;;;;13.09;59.88;99932.32;105025;1271;74179;-68
2022/05/03 13:06:52;;;;;;;7.90;3.40;;;;;;;12.95;60.84;99933.44;105085;1271;66542;-69
2022/05/03 13:09:40;;;;;;;7.70;3.50;;;;;;;12.81;62.22;99936.33;104859;1271;73373;-70
2022/05/03 13:12:30;;;;;;;7.40;3.00;;;;;;;12.74;63.32;99940.30;104837;1271;59733;-70
2022/05/03 13:15:17;;;;;;;7.30;3.10;;;;;;;12.63;63.44;99942.17;104929;1271;59587;-70
2022/05/03 13:18:07;;;;;;;6.40;2.60;;;;;;;12.61;62.89;99939.48;105083;1271;74680;-70
2022/05/03 13:20:56;;;;;;;7.90;2.90;;;;;;;12.69;62.97;99940.00;104866;1271;69380;-70
2022/05/03 13:23:44;;;;;;;6.90;2.60;;;;;;;12.80;62.85;99943.31;104852;1271;73743;-68
2022/05/03 13:26:33;;;;;;;8.10;3.00;;;;;;;12.90;62.77;99943.83;104894;1271;59759;-67
2022/05/03 13:29:21;;;;;;;7.20;2.90;;;;;;;13.05;62.32;99941.09;104858;1271;60287;-69
2022/05/03 13:32:09;;;;;;;6.90;2.70;;;;;;;13.21;61.20;99944.31;104921;1271;73903;-69
2022/05/03 13:34:58;;;;;;;7.40;2.60;;;;;;;13.33;60.51;99946.75;104946;1271;68331;-69
2022/05/03 13:40:52;;;;;;;7.60;2.70;;;;;;;13.60;59.62;99945.56;105033;1271;59633;-69
2022/05/03 13:43:40;;;;;;;6.80;2.80;;;;;;;13.68;59.20;99941.50;106619;1271;61041;-70
2022/05/03 13:46:29;;;;;;;8.40;3.10;;;;;;;13.77;59.49;99946.14;108164;1271;73858;-70
2022/05/03 13:49:16;;;;;;;7.40;3.50;;;;;;;13.81;59.29;99946.13;107611;1271;67676;-69
2022/05/03 13:52:07;;;;;;;7.50;3.50;;;;;;;13.92;58.83;99941.31;108163;1271;73259;-69
2022/05/03 13:54:54;;;;;;;7.80;3.40;;;;;;;14.06;58.59;99941.48;106591;1271;59675;-69
2022/05/03 13:57:42;;;;;;;8.20;3.60;;;;;;;14.04;58.30;99945.23;105129;1271;62002;-69
2022/05/03 14:00:31;;;;;;;7.80;4.10;;;;;;;13.82;58.69;99943.51;104960;1271;74552;-69